Time;durP1;ratioP1;P1;durP2;ratioP2;P2;SDS_P1;SDS_P2;PMS_P1;PMS_P2;Temp;Humidity;BMP_temperature;BMP_pressure;BME280_temperature;BME280_humidity;BME280_pressure;Samples;Min_cycle;Max_cycle;Signal;HPM_P1;HPM_P2
2022/03/11 00:00:15;;;;;;;6.97;4.63;;;9.90;99.90;;;;;;5048665;28;20017;-80
2022/03/11 00:02:41;;;;;;;7.25;4.07;;;9.90;99.90;;;;;;5048488;28;20074;-80
2022/03/11 00:05:07;;;;;;;8.20;5.20;;;9.90;99.90;;;;;;5049484;28;20033;-80
2022/03/11 00:07:32;;;;;;;7.88;4.40;;;9.90;99.90;;;;;;5050654;28;20116;-80
2022/03/11 00:09:58;;;;;;;8.60;4.95;;;9.80;99.90;;;;;;5051616;28;20101;-80
2022/03/11 00:12:24;;;;;;;8.98;4.82;;;9.90;99.90;;;;;;5053134;28;20029;-80
2022/03/11 00:14:51;;;;;;;7.50;4.53;;;9.80;99.90;;;;;;5053517;28;20025;-80
2022/03/11 00:17:16;;;;;;;6.30;4.10;;;9.90;99.90;;;;;;5052437;28;20060;-80
2022/03/11 00:19:42;;;;;;;6.47;4.05;;;9.80;99.90;;;;;;5053490;28;20049;-79
2022/03/11 00:22:08;;;;;;;8.32;4.38;;;9.90;99.90;;;;;;5053506;28;20491;-80
2022/03/11 00:24:34;;;;;;;6.47;3.83;;;9.90;99.90;;;;;;5051153;28;20556;-79
2022/03/11 00:27:00;;;;;;;6.75;3.85;;;9.90;99.90;;;;;;5054788;28;20510;-79
2022/03/11 00:29:25;;;;;;;7.00;4.15;;;9.80;99.90;;;;;;5050496;28;20033;-79
2022/03/11 00:31:51;;;;;;;7.30;3.90;;;9.80;99.90;;;;;;5052412;28;20052;-79
2022/03/11 00:34:17;;;;;;;5.80;4.57;;;9.80;99.90;;;;;;5051064;28;20056;-78
2022/03/11 00:36:44;;;;;;;9.52;4.68;;;9.70;99.90;;;;;;5053642;28;20017;-78
2022/03/11 00:39:10;;;;;;;7.50;4.70;;;9.70;99.90;;;;;;5050583;28;20020;-78
2022/03/11 00:41:37;;;;;;;5.72;3.83;;;9.70;99.90;;;;;;5052942;28;20051;-78
2022/03/11 00:44:03;;;;;;;7.45;3.63;;;9.70;99.90;;;;;;5048703;28;20037;-78
2022/03/11 00:46:28;;;;;;;6.50;4.20;;;9.70;99.90;;;;;;5051546;28;20469;-80
2022/03/11 00:48:54;;;;;;;7.63;4.13;;;9.60;99.90;;;;;;5050963;28;20021;-80
2022/03/11 00:51:20;;;;;;;5.70;3.90;;;9.60;99.90;;;;;;5050253;28;20036;-80
2022/03/11 00:53:46;;;;;;;6.55;4.25;;;9.60;99.90;;;;;;5035989;28;20462;-80
2022/03/11 00:56:11;;;;;;;5.97;3.60;;;9.60;99.90;;;;;;5051694;28;20021;-80
2022/03/11 00:58:37;;;;;;;5.57;4.03;;;9.70;99.90;;;;;;5032279;28;20445;-80
2022/03/11 01:01:03;;;;;;;8.10;4.20;;;9.60;99.90;;;;;;5050332;28;20021;-80
2022/03/11 01:03:29;;;;;;;6.70;4.28;;;9.60;99.90;;;;;;5051757;28;20418;-80
2022/03/11 01:05:54;;;;;;;5.80;3.60;;;9.60;99.90;;;;;;5053852;28;20552;-80
2022/03/11 01:08:20;;;;;;;6.97;4.28;;;9.70;99.90;;;;;;5051823;28;20033;-80
2022/03/11 01:10:46;;;;;;;7.95;4.80;;;9.70;99.90;;;;;;5051594;28;20025;-80
2022/03/11 01:13:14;;;;;;;11.32;4.75;;;9.70;99.90;;;;;;5050438;28;20071;-80
2022/03/11 01:15:40;;;;;;;7.20;4.28;;;9.70;99.90;;;;;;5042862;28;20025;-81
2022/03/11 01:18:06;;;;;;;6.07;3.97;;;9.60;99.90;;;;;;5034591;28;20105;-81
2022/03/11 01:20:31;;;;;;;5.55;3.60;;;9.60;99.90;;;;;;5052409;28;20510;-81
2022/03/11 01:22:57;;;;;;;9.68;3.92;;;9.50;99.90;;;;;;5052302;28;20055;-81
2022/03/11 01:25:23;;;;;;;5.32;3.47;;;9.60;99.90;;;;;;5052371;28;20568;-81
2022/03/11 01:27:48;;;;;;;4.22;3.35;;;9.50;99.90;;;;;;5051911;28;20021;-81
2022/03/11 01:30:16;;;;;;;5.78;3.78;;;9.50;99.90;;;;;;5034080;28;20029;-81
2022/03/11 01:32:42;;;;;;;5.38;3.72;;;9.50;99.90;;;;;;5034495;28;20032;-81
2022/03/11 01:35:09;;;;;;;8.98;4.22;;;9.50;99.90;;;;;;5051758;28;20573;-81
2022/03/11 01:37:35;;;;;;;5.40;4.20;;;9.50;99.90;;;;;;5051654;28;20017;-81
2022/03/11 01:40:03;;;;;;;5.40;3.70;;;9.60;99.90;;;;;;5052187;28;20029;-82
2022/03/11 01:42:29;;;;;;;5.53;3.70;;;9.50;99.90;;;;;;5052079;28;20056;-81
2022/03/11 01:44:54;;;;;;;5.28;3.88;;;9.50;99.90;;;;;;5052082;28;20522;-81
2022/03/11 01:47:20;;;;;;;7.18;4.22;;;9.50;99.90;;;;;;5051565;28;20025;-80
2022/03/11 01:49:46;;;;;;;11.23;4.43;;;9.80;99.90;;;;;;5051335;28;20045;-80
2022/03/11 01:52:12;;;;;;;5.53;4.25;;;9.80;99.90;;;;;;5051834;28;20029;-80
2022/03/11 01:54:41;;;;;;;7.78;4.43;;;9.80;99.90;;;;;;5051666;28;20029;-81
2022/03/11 01:57:08;;;;;;;6.65;4.55;;;9.80;99.90;;;;;;5033738;28;20033;-81
2022/03/11 01:59:34;;;;;;;6.30;4.05;;;9.80;99.90;;;;;;5033129;28;20118;-80
2022/03/11 02:02:00;;;;;;;6.68;4.55;;;9.90;99.90;;;;;;5050864;28;20494;-80
2022/03/11 02:04:25;;;;;;;8.77;4.88;;;9.80;99.90;;;;;;5050723;28;20453;-80
2022/03/11 02:06:53;;;;;;;10.65;4.85;;;9.90;99.90;;;;;;5050945;28;20060;-81
2022/03/11 02:09:18;;;;;;;7.30;4.53;;;10.00;99.90;;;;;;5051352;28;20021;-82
2022/03/11 02:11:47;;;;;;;7.95;4.90;;;10.00;99.90;;;;;;5052322;28;20032;-81
2022/03/11 02:14:13;;;;;;;10.75;5.35;;;10.00;99.90;;;;;;5050400;28;20029;-81
2022/03/11 02:16:40;;;;;;;7.68;4.68;;;10.00;99.90;;;;;;5050137;28;20025;-80
2022/03/11 02:19:07;;;;;;;11.60;5.35;;;10.00;99.90;;;;;;5050898;28;20033;-81
2022/03/11 02:21:47;;;;;;;8.57;5.05;;;10.00;99.90;;;;;;5032653;28;20029;-80
2022/03/11 02:24:14;;;;;;;7.82;5.47;;;10.00;99.90;;;;;;5050901;28;20104;-79
2022/03/11 02:26:40;;;;;;;8.40;5.03;;;10.00;99.90;;;;;;5051836;28;20009;-79
2022/03/11 02:29:06;;;;;;;9.10;5.10;;;10.00;99.90;;;;;;5049768;28;20494;-81
2022/03/11 02:31:32;;;;;;;7.43;4.68;;;10.00;99.90;;;;;;5032575;28;20025;-80
2022/03/11 02:34:00;;;;;;;6.97;4.35;;;9.90;99.90;;;;;;5049276;28;20512;-79
2022/03/11 02:36:26;;;;;;;7.82;4.93;;;9.90;99.90;;;;;;5031842;28;20056;-81
2022/03/11 02:38:53;;;;;;;10.57;5.68;;;10.00;99.90;;;;;;5051504;28;20047;-79
2022/03/11 02:41:19;;;;;;;12.38;5.15;;;10.00;99.90;;;;;;5050441;28;20562;-78
2022/03/11 02:43:44;;;;;;;12.07;5.22;;;9.90;99.90;;;;;;5032525;28;20036;-79
2022/03/11 02:46:11;;;;;;;8.57;4.80;;;9.90;99.90;;;;;;5049278;28;20100;-79
2022/03/11 02:48:37;;;;;;;10.90;5.95;;;9.90;99.90;;;;;;5049719;28;20115;-78
2022/03/11 02:51:04;;;;;;;7.18;4.45;;;9.90;99.90;;;;;;5033073;28;20051;-78
2022/03/11 02:53:30;;;;;;;8.93;5.72;;;9.80;99.90;;;;;;5050092;28;20104;-79
2022/03/11 02:55:55;;;;;;;9.75;5.25;;;9.80;99.90;;;;;;5049016;28;20104;-79
2022/03/11 02:58:21;;;;;;;9.23;4.95;;;9.80;99.90;;;;;;5050300;28;20033;-79
2022/03/11 03:00:47;;;;;;;10.40;5.50;;;9.80;99.90;;;;;;5050474;28;20025;-79
2022/03/11 03:03:13;;;;;;;15.65;5.65;;;9.80;99.90;;;;;;5050395;28;20025;-81
2022/03/11 03:05:39;;;;;;;8.95;4.85;;;9.70;99.90;;;;;;5051192;28;20051;-79
2022/03/11 03:08:05;;;;;;;10.23;4.85;;;9.80;99.90;;;;;;5049431;28;20398;-79
2022/03/11 03:10:30;;;;;;;11.93;5.65;;;9.80;99.90;;;;;;5049599;28;20514;-79
2022/03/11 03:12:56;;;;;;;7.82;4.95;;;9.80;99.90;;;;;;5040911;28;20021;-79
2022/03/11 03:15:22;;;;;;;7.45;4.32;;;9.70;99.90;;;;;;5049181;28;20486;-79
2022/03/11 03:17:47;;;;;;;10.27;5.57;;;9.80;99.90;;;;;;5050828;28;20443;-79
2022/03/11 03:20:14;;;;;;;6.38;4.32;;;9.70;99.90;;;;;;5041886;28;20561;-79
2022/03/11 03:22:40;;;;;;;6.75;4.55;;;9.80;99.90;;;;;;5042049;28;20075;-79
2022/03/11 03:25:09;;;;;;;8.02;4.90;;;9.70;99.90;;;;;;5044099;28;20021;-79
2022/03/11 03:27:35;;;;;;;9.45;4.32;;;9.70;99.90;;;;;;5048837;28;20101;-79
2022/03/11 03:30:02;;;;;;;8.43;4.40;;;9.70;99.90;;;;;;5051252;28;20029;-79
2022/03/11 03:32:28;;;;;;;8.43;5.28;;;9.70;99.90;;;;;;5046315;28;20048;-78
2022/03/11 03:34:54;;;;;;;12.68;5.85;;;9.70;99.90;;;;;;5047844;28;20017;-78
2022/03/11 03:37:19;;;;;;;9.32;5.43;;;9.70;99.90;;;;;;5045234;28;20502;-79
2022/03/11 03:39:45;;;;;;;8.35;4.43;;;9.60;99.90;;;;;;5049580;28;20486;-79
2022/03/11 03:42:11;;;;;;;10.40;5.10;;;9.70;99.90;;;;;;5049347;28;20021;-79
2022/03/11 03:44:37;;;;;;;9.20;4.97;;;9.70;99.90;;;;;;5050648;28;20068;-79
2022/03/11 03:47:04;;;;;;;10.38;4.70;;;9.70;99.90;;;;;;5049473;28;20033;-79
2022/03/11 03:49:30;;;;;;;11.50;4.47;;;9.70;99.90;;;;;;5049131;28;20324;-79
2022/03/11 03:51:56;;;;;;;9.43;5.80;;;9.70;99.90;;;;;;5049482;28;20518;-79
2022/03/11 03:54:22;;;;;;;14.55;5.22;;;9.70;99.90;;;;;;5043804;28;20032;-79
2022/03/11 03:56:47;;;;;;;7.88;4.97;;;9.80;99.90;;;;;;5049829;28;20099;-79
2022/03/11 03:59:13;;;;;;;14.85;5.32;;;9.70;99.90;;;;;;5049257;28;20036;-79
2022/03/11 04:01:43;;;;;;;11.00;5.18;;;9.80;99.90;;;;;;5049410;28;20028;-79
2022/03/11 04:04:11;;;;;;;11.57;5.07;;;9.70;99.90;;;;;;5049238;28;20032;-79
2022/03/11 04:06:38;;;;;;;10.85;5.30;;;9.70;99.90;;;;;;5047923;28;20021;-79
2022/03/11 04:09:06;;;;;;;9.88;5.22;;;9.70;99.90;;;;;;5050049;28;20021;-79
2022/03/11 04:11:32;;;;;;;10.45;5.15;;;9.60;99.90;;;;;;5046510;28;20025;-79
2022/03/11 04:13:59;;;;;;;9.45;4.22;;;9.70;99.90;;;;;;5047192;28;20017;-79
2022/03/11 04:16:25;;;;;;;8.00;4.90;;;9.70;99.90;;;;;;5044834;28;20052;-79
2022/03/11 04:18:51;;;;;;;8.25;5.30;;;9.60;99.90;;;;;;5049279;28;20044;-79
2022/03/11 04:21:18;;;;;;;7.25;3.75;;;9.60;99.90;;;;;;5049098;28;20112;-79
2022/03/11 04:23:46;;;;;;;8.73;4.85;;;9.60;99.90;;;;;;5041551;28;20030;-79
2022/03/11 04:26:11;;;;;;;11.40;5.13;;;9.70;99.90;;;;;;5046747;28;20043;-80
2022/03/11 04:28:38;;;;;;;8.68;4.47;;;9.70;99.90;;;;;;5048457;28;20327;-79
2022/03/11 04:31:09;;;;;;;10.50;5.07;;;9.60;99.90;;;;;;5046035;28;20033;-79
2022/03/11 04:33:35;;;;;;;11.80;5.30;;;9.70;99.90;;;;;;5054890;28;20018;-80
2022/03/11 04:36:03;;;;;;;10.43;5.53;;;9.70;99.90;;;;;;5049476;28;20043;-80
2022/03/11 04:38:29;;;;;;;8.98;4.78;;;9.60;99.90;;;;;;5049197;28;20028;-80
2022/03/11 04:40:54;;;;;;;11.23;5.82;;;9.60;99.90;;;;;;5048770;28;20021;-80
2022/03/11 04:43:20;;;;;;;8.85;4.72;;;9.60;99.90;;;;;;5048383;28;20100;-80
2022/03/11 04:45:46;;;;;;;9.60;4.57;;;9.60;99.90;;;;;;5047422;28;20091;-79
2022/03/11 04:48:12;;;;;;;7.75;4.97;;;9.60;99.90;;;;;;5040553;28;20090;-79
2022/03/11 04:50:39;;;;;;;8.35;4.93;;;9.60;99.90;;;;;;5046265;28;20522;-80
2022/03/11 04:53:05;;;;;;;15.25;6.40;;;9.60;99.90;;;;;;5047687;28;20028;-80
2022/03/11 04:55:30;;;;;;;11.18;5.78;;;9.60;99.90;;;;;;5052505;28;20017;-80
2022/03/11 04:57:56;;;;;;;8.82;4.57;;;9.60;99.90;;;;;;5052852;28;20510;-80
2022/03/11 05:00:22;;;;;;;7.88;4.07;;;9.60;99.90;;;;;;5052367;28;20033;-80
2022/03/11 05:02:48;;;;;;;7.93;4.65;;;9.60;99.90;;;;;;5053691;28;20494;-79
2022/03/11 05:05:15;;;;;;;9.95;4.85;;;9.60;99.90;;;;;;5052155;28;20037;-80
2022/03/11 05:07:41;;;;;;;11.73;5.18;;;9.60;99.90;;;;;;5051910;28;20138;-79
2022/03/11 05:10:09;;;;;;;11.27;5.68;;;9.70;99.90;;;;;;5049899;28;20034;-79
2022/03/11 05:12:36;;;;;;;10.63;5.18;;;9.60;99.90;;;;;;5056628;28;20029;-79
2022/03/11 05:15:02;;;;;;;9.55;4.85;;;9.70;99.90;;;;;;5048458;28;20033;-80
2022/03/11 05:17:28;;;;;;;14.43;4.90;;;9.70;99.90;;;;;;5052751;28;20087;-79
2022/03/11 05:19:54;;;;;;;9.30;4.53;;;9.60;99.90;;;;;;5052218;28;20016;-79
2022/03/11 05:22:20;;;;;;;11.75;4.90;;;9.50;99.90;;;;;;5051979;28;20091;-79
2022/03/11 05:24:46;;;;;;;8.50;4.60;;;9.40;99.90;;;;;;5048321;28;20030;-79
2022/03/11 05:27:12;;;;;;;10.68;5.20;;;9.60;99.90;;;;;;5052533;28;20142;-79
2022/03/11 05:29:39;;;;;;;8.75;4.30;;;9.70;99.90;;;;;;5048867;28;20025;-79
2022/03/11 05:32:06;;;;;;;9.88;4.65;;;9.60;99.90;;;;;;5049960;28;20021;-79
2022/03/11 05:34:32;;;;;;;12.07;5.28;;;9.50;99.90;;;;;;5051286;28;20021;-79
2022/03/11 05:36:58;;;;;;;6.82;4.57;;;9.50;99.90;;;;;;5051745;28;20062;-79
2022/03/11 05:39:23;;;;;;;9.27;4.38;;;9.60;99.90;;;;;;5052054;28;20857;-79
2022/03/11 05:41:49;;;;;;;7.32;5.00;;;9.40;99.90;;;;;;5053366;28;20104;-79
2022/03/11 05:44:17;;;;;;;7.43;4.50;;;9.50;99.90;;;;;;5049505;28;20575;-79
2022/03/11 05:46:44;;;;;;;13.57;5.63;;;9.50;99.90;;;;;;5051263;28;20028;-79
2022/03/11 05:49:10;;;;;;;7.85;4.15;;;9.50;99.90;;;;;;5049766;28;20041;-80
2022/03/11 05:51:37;;;;;;;10.27;5.03;;;9.50;99.90;;;;;;5051715;28;20025;-79
2022/03/11 05:54:03;;;;;;;7.75;4.18;;;9.40;99.90;;;;;;5052131;28;20059;-80
2022/03/11 05:56:29;;;;;;;9.05;4.35;;;9.30;99.90;;;;;;5052227;28;20025;-79
2022/03/11 05:58:55;;;;;;;8.20;4.50;;;9.30;99.90;;;;;;5049967;28;20040;-79
2022/03/11 06:01:21;;;;;;;10.75;4.85;;;9.30;99.90;;;;;;5050880;28;20055;-79
2022/03/11 06:03:46;;;;;;;8.07;4.88;;;9.20;99.90;;;;;;5049726;28;20522;-79
2022/03/11 06:06:15;;;;;;;8.80;5.10;;;9.20;99.90;;;;;;5050710;28;20017;-79
2022/03/11 06:08:42;;;;;;;8.75;4.28;;;9.30;99.90;;;;;;5049062;28;20094;-79
2022/03/11 06:11:09;;;;;;;7.38;4.18;;;9.30;99.90;;;;;;5049273;28;20083;-79
2022/03/11 06:13:35;;;;;;;9.63;4.45;;;9.30;99.90;;;;;;5033135;28;20051;-79
2022/03/11 06:16:02;;;;;;;7.22;3.85;;;9.20;99.90;;;;;;5051328;28;20106;-79
2022/03/11 06:18:27;;;;;;;10.55;4.30;;;9.20;99.90;;;;;;5051241;28;20024;-79
2022/03/11 06:20:53;;;;;;;9.55;5.18;;;9.30;99.90;;;;;;5052075;28;20025;-79
2022/03/11 06:23:19;;;;;;;7.90;4.45;;;9.30;99.90;;;;;;5051459;28;20028;-79
2022/03/11 06:25:45;;;;;;;8.82;4.28;;;9.20;99.90;;;;;;5050834;28;20106;-79
2022/03/11 06:28:11;;;;;;;9.35;4.82;;;9.20;99.90;;;;;;5050621;28;20153;-79
2022/03/11 06:30:36;;;;;;;8.43;4.22;;;9.30;99.90;;;;;;5044956;28;20036;-79
2022/03/11 06:33:02;;;;;;;12.23;4.78;;;9.30;99.90;;;;;;5050618;28;20024;-79
2022/03/11 06:35:28;;;;;;;9.00;4.80;;;9.40;99.90;;;;;;5051155;28;20061;-79
2022/03/11 06:37:54;;;;;;;8.95;4.85;;;9.30;99.90;;;;;;5047646;28;20053;-80
2022/03/11 06:40:21;;;;;;;12.95;5.05;;;9.40;99.90;;;;;;5050383;28;20040;-79
2022/03/11 06:42:48;;;;;;;12.35;5.43;;;9.40;99.90;;;;;;5050213;28;20029;-79
2022/03/11 06:45:16;;;;;;;10.73;4.75;;;9.60;99.90;;;;;;5049552;28;20032;-79
2022/03/11 06:47:42;;;;;;;9.23;4.35;;;9.70;99.90;;;;;;5049558;28;20021;-79
2022/03/11 06:50:09;;;;;;;12.05;5.20;;;9.80;99.90;;;;;;5044398;28;20077;-80
2022/03/11 06:52:35;;;;;;;11.95;6.05;;;10.00;99.90;;;;;;5044150;28;20056;-80
2022/03/11 06:55:02;;;;;;;7.30;4.60;;;10.10;99.90;;;;;;5049359;28;20029;-79
2022/03/11 06:57:30;;;;;;;11.32;4.47;;;10.10;99.90;;;;;;5048092;28;20021;-79
2022/03/11 06:59:55;;;;;;;10.30;4.90;;;10.10;99.90;;;;;;5041989;28;20061;-79
2022/03/11 07:02:21;;;;;;;8.73;4.80;;;10.10;99.90;;;;;;5047672;28;20044;-80
2022/03/11 07:04:47;;;;;;;6.63;4.15;;;10.10;99.90;;;;;;5046241;28;20060;-83
2022/03/11 07:07:12;;;;;;;8.15;4.35;;;10.20;99.90;;;;;;5050015;28;20111;-82
2022/03/11 07:09:38;;;;;;;13.27;4.78;;;10.30;99.90;;;;;;5049698;28;20041;-82
2022/03/11 07:12:05;;;;;;;7.60;4.15;;;10.40;99.90;;;;;;5051031;28;20490;-82
2022/03/11 07:14:35;;;;;;;10.52;4.95;;;10.70;99.90;;;;;;5049196;28;20108;-82
2022/03/11 07:17:07;;;;;;;9.60;4.53;;;10.90;99.90;;;;;;5045175;28;20071;-81
2022/03/11 07:19:34;;;;;;;8.52;3.95;;;11.00;99.90;;;;;;5049491;28;20095;-81
2022/03/11 07:22:02;;;;;;;11.35;4.47;;;10.60;99.90;;;;;;5049780;28;20029;-81
2022/03/11 07:24:29;;;;;;;7.82;4.10;;;10.60;99.90;;;;;;5037038;28;25457;-83
2022/03/11 07:26:55;;;;;;;10.27;4.70;;;10.50;99.90;;;;;;5050976;28;20082;-83
2022/03/11 07:29:21;;;;;;;8.10;4.40;;;10.40;99.90;;;;;;5048309;28;20029;-83
2022/03/11 07:31:47;;;;;;;9.27;4.25;;;10.40;99.90;;;;;;5047392;28;20086;-83
2022/03/11 07:34:13;;;;;;;9.77;4.57;;;10.40;99.90;;;;;;5049340;28;20032;-83
2022/03/11 07:36:39;;;;;;;9.05;4.57;;;10.40;99.90;;;;;;5049874;28;20428;-83
2022/03/11 07:39:06;;;;;;;6.65;3.97;;;10.50;99.90;;;;;;5049836;28;20021;-83
2022/03/11 07:41:32;;;;;;;10.25;4.18;;;10.50;99.90;;;;;;5050110;28;20100;-83
2022/03/11 07:43:58;;;;;;;5.90;3.83;;;10.50;99.90;;;;;;5047790;28;20079;-83
2022/03/11 07:46:24;;;;;;;9.50;4.18;;;10.50;99.90;;;;;;5039782;28;20530;-82
2022/03/11 07:48:50;;;;;;;7.35;3.85;;;10.50;99.90;;;;;;5039461;28;20021;-82
2022/03/11 07:51:17;;;;;;;9.43;4.13;;;10.80;99.90;;;;;;5048809;28;20037;-84
2022/03/11 07:53:43;;;;;;;6.35;4.43;;;14.10;99.90;;;;;;5050103;28;20032;-84
2022/03/11 07:56:10;;;;;;;7.72;3.85;;;16.00;99.90;;;;;;5049426;28;20399;-84
2022/03/11 07:58:36;;;;;;;12.05;3.88;;;17.00;97.30;;;;;;5048676;28;20025;-83
2022/03/11 08:01:04;;;;;;;9.05;4.25;;;18.10;95.80;;;;;;5048883;28;20025;-84
2022/03/11 08:03:30;;;;;;;9.13;4.00;;;17.80;96.00;;;;;;5033415;28;20017;-84
2022/03/11 08:05:56;;;;;;;4.82;3.65;;;18.00;95.30;;;;;;5025103;28;20578;-84
2022/03/11 08:08:22;;;;;;;6.75;3.92;;;19.40;93.50;;;;;;5046573;28;20108;-84
2022/03/11 08:10:48;;;;;;;7.80;3.95;;;18.00;94.50;;;;;;5045076;28;20495;-84
2022/03/11 08:13:14;;;;;;;7.47;3.92;;;18.70;93.30;;;;;;5047801;28;20054;-83
2022/03/11 08:15:40;;;;;;;10.13;4.20;;;18.40;93.40;;;;;;5048070;28;20533;-84
2022/03/11 08:18:06;;;;;;;8.27;4.03;;;19.10;93.10;;;;;;5046891;28;20036;-82
2022/03/11 08:20:32;;;;;;;8.38;4.35;;;18.50;92.90;;;;;;5049623;28;20032;-83
2022/03/11 08:22:57;;;;;;;8.18;3.80;;;18.30;93.60;;;;;;5048862;28;20037;-84
2022/03/11 08:25:26;;;;;;;6.25;4.07;;;18.60;93.30;;;;;;5048587;28;20037;-84
2022/03/11 08:27:56;;;;;;;8.65;4.07;;;19.30;92.80;;;;;;5049079;28;20087;-84
2022/03/11 08:30:23;;;;;;;6.97;3.92;;;18.70;93.30;;;;;;5052902;28;20040;-84
2022/03/11 08:32:49;;;;;;;7.68;4.10;;;17.70;94.20;;;;;;5054342;28;20036;-83
2022/03/11 08:35:15;;;;;;;7.03;3.97;;;15.20;97.50;;;;;;5052064;28;20039;-83
2022/03/11 08:37:42;;;;;;;8.48;4.63;;;14.80;99.40;;;;;;5034594;28;20047;-84
2022/03/11 08:40:09;;;;;;;7.60;3.72;;;14.20;99.60;;;;;;5050207;28;20036;-84
2022/03/11 08:42:35;;;;;;;7.93;4.05;;;14.60;99.30;;;;;;5052527;28;20112;-84
2022/03/11 08:45:05;;;;;;;6.57;3.85;;;14.00;99.80;;;;;;5036321;28;20087;-84
2022/03/11 08:47:31;;;;;;;7.35;4.47;;;13.90;99.90;;;;;;5052967;28;20033;-85
2022/03/11 08:49:57;;;;;;;6.60;4.18;;;13.60;99.90;;;;;;5052364;28;20104;-84
2022/03/11 08:52:26;;;;;;;8.50;4.32;;;13.70;99.90;;;;;;5052380;28;20051;-85
2022/03/11 08:54:52;;;;;;;6.35;3.40;;;13.40;99.90;;;;;;5050871;28;20064;-84
2022/03/11 08:57:18;;;;;;;7.63;4.22;;;13.50;99.90;;;;;;5052554;28;20067;-84
2022/03/11 08:59:45;;;;;;;6.47;4.43;;;14.20;99.90;;;;;;5049347;28;20546;-84
2022/03/11 09:02:10;;;;;;;9.75;4.72;;;14.80;99.90;;;;;;5050295;28;20029;-84
2022/03/11 09:04:36;;;;;;;6.75;4.55;;;14.90;99.90;;;;;;5051912;28;20564;-84
2022/03/11 09:07:03;;;;;;;9.82;3.95;;;15.10;99.70;;;;;;5052403;28;20029;-84
2022/03/11 09:09:29;;;;;;;5.57;3.63;;;15.50;99.20;;;;;;5052318;28;20036;-84
2022/03/11 09:11:55;;;;;;;10.40;4.63;;;15.70;99.40;;;;;;5053539;28;20028;-84
2022/03/11 09:14:21;;;;;;;11.10;4.97;;;15.20;99.80;;;;;;5051983;28;20099;-85
2022/03/11 09:16:47;;;;;;;11.38;4.07;;;14.40;99.90;;;;;;5051986;28;20054;-84
2022/03/11 09:19:13;;;;;;;6.72;3.83;;;14.30;99.90;;;;;;5049148;28;20503;-84
2022/03/11 09:21:39;;;;;;;8.32;4.45;;;14.10;99.90;;;;;;5052157;28;20028;-84
2022/03/11 09:24:05;;;;;;;8.05;3.78;;;13.80;99.90;;;;;;5048402;28;20022;-84
2022/03/11 09:26:31;;;;;;;7.28;4.22;;;13.60;99.90;;;;;;5052634;28;20036;-84
2022/03/11 09:28:57;;;;;;;8.35;4.32;;;13.40;99.90;;;;;;5051836;28;20040;-84
2022/03/11 09:31:23;;;;;;;12.85;4.75;;;13.20;99.90;;;;;;5051530;28;20029;-84
2022/03/11 09:33:49;;;;;;;7.05;3.67;;;13.10;99.90;;;;;;5050282;28;20100;-84
2022/03/11 09:36:15;;;;;;;9.80;4.15;;;13.10;99.90;;;;;;5051873;28;20094;-84
2022/03/11 09:38:41;;;;;;;9.95;4.57;;;13.00;99.90;;;;;;5052790;28;20581;-84
2022/03/11 09:41:07;;;;;;;7.53;4.25;;;12.90;99.90;;;;;;5048444;28;20075;-84
2022/03/11 09:43:33;;;;;;;7.78;4.57;;;13.00;99.90;;;;;;5051305;28;20515;-84
2022/03/11 09:45:59;;;;;;;7.30;4.57;;;13.00;99.90;;;;;;5051986;28;20494;-84
2022/03/11 09:48:25;;;;;;;7.10;4.38;;;13.10;99.90;;;;;;5037209;28;25409;-84
2022/03/11 09:50:51;;;;;;;8.18;4.10;;;13.10;99.90;;;;;;5052806;28;20045;-83
2022/03/11 09:53:18;;;;;;;8.15;4.65;;;13.20;99.90;;;;;;5049286;28;20044;-83
2022/03/11 09:55:45;;;;;;;7.38;3.97;;;13.20;99.90;;;;;;5051269;28;20155;-83
2022/03/11 09:58:11;;;;;;;9.27;4.40;;;13.20;99.90;;;;;;5049082;28;20132;-83
2022/03/11 10:00:38;;;;;;;7.00;4.43;;;13.20;99.90;;;;;;5051511;28;20166;-83
2022/03/11 10:03:04;;;;;;;6.78;4.20;;;13.20;99.90;;;;;;5051609;28;20036;-84
2022/03/11 10:05:52;;;;;;;5.63;3.83;;;13.30;99.90;;;;;;5051896;28;20534;-84
2022/03/11 10:08:39;;;;;;;7.22;4.28;;;13.50;99.90;;;;;;5050845;28;20041;-83
2022/03/11 10:11:24;;;;;;;10.82;3.92;;;13.50;99.90;;;;;;5050602;28;20059;-84
2022/03/11 10:13:51;;;;;;;6.68;4.28;;;13.50;99.90;;;;;;5049924;28;20025;-84
2022/03/11 10:16:19;;;;;;;9.10;4.78;;;13.60;99.90;;;;;;5047517;28;20021;-84
2022/03/11 10:18:55;;;;;;;7.30;4.10;;;13.60;99.90;;;;;;5051484;28;20021;-84
2022/03/11 10:21:23;;;;;;;9.27;4.10;;;13.60;99.90;;;;;;5049578;28;20056;-83
2022/03/11 10:23:49;;;;;;;6.72;4.50;;;13.70;99.90;;;;;;5037975;28;20025;-83
2022/03/11 10:26:35;;;;;;;8.63;4.20;;;13.80;99.90;;;;;;5049316;28;20033;-83
2022/03/11 10:29:03;;;;;;;8.70;4.13;;;13.80;99.90;;;;;;5050752;28;20037;-83
2022/03/11 10:31:34;;;;;;;5.80;3.88;;;13.90;99.90;;;;;;5050831;28;20025;-83
2022/03/11 10:34:27;;;;;;;5.97;3.50;;;14.00;99.90;;;;;;5050785;28;20017;-83
2022/03/11 10:37:00;;;;;;;7.28;4.53;;;14.00;99.90;;;;;;5043836;28;20028;-84
2022/03/11 10:39:27;;;;;;;8.05;4.25;;;14.00;99.90;;;;;;5050508;28;20103;-84
2022/03/11 10:41:55;;;;;;;11.40;4.05;;;14.10;99.90;;;;;;5051049;28;20057;-84
2022/03/11 10:44:26;;;;;;;6.63;4.00;;;14.10;99.90;;;;;;5050675;28;20036;-84
2022/03/11 10:46:53;;;;;;;7.90;4.38;;;14.00;99.90;;;;;;5050498;28;20049;-84
2022/03/11 10:49:34;;;;;;;8.18;5.15;;;13.90;99.90;;;;;;5049507;28;20521;-83
2022/03/11 10:52:01;;;;;;;8.70;4.32;;;14.00;99.90;;;;;;5048735;28;20029;-83
2022/03/11 10:54:29;;;;;;;7.53;4.95;;;14.10;99.90;;;;;;5050783;28;20016;-82
2022/03/11 10:56:57;;;;;;;6.85;4.47;;;14.00;99.90;;;;;;5047535;28;20024;-83
2022/03/11 10:59:26;;;;;;;9.88;4.75;;;13.90;99.90;;;;;;5048483;28;20033;-84
2022/03/11 11:01:52;;;;;;;10.35;3.97;;;13.80;99.90;;;;;;5050172;28;20025;-83
2022/03/11 11:04:19;;;;;;;7.10;3.60;;;13.70;99.90;;;;;;5050273;28;20033;-83
2022/03/11 11:06:46;;;;;;;5.00;3.65;;;13.70;99.90;;;;;;5049904;28;20025;-83
2022/03/11 11:09:14;;;;;;;8.23;3.78;;;13.60;99.90;;;;;;5050660;28;20029;-83
2022/03/11 11:11:42;;;;;;;8.55;4.55;;;13.70;99.90;;;;;;5048945;28;20048;-83
2022/03/11 11:14:09;;;;;;;7.63;3.90;;;13.70;99.90;;;;;;5050294;28;20024;-83
2022/03/11 11:16:40;;;;;;;5.50;3.95;;;13.80;99.90;;;;;;5047538;28;20021;-84
2022/03/11 11:19:08;;;;;;;7.35;4.30;;;13.80;99.90;;;;;;5049319;28;20017;-83
2022/03/11 11:21:36;;;;;;;7.72;4.35;;;13.80;99.90;;;;;;5050030;28;20079;-83
2022/03/11 11:24:04;;;;;;;6.75;3.50;;;13.80;99.90;;;;;;5036780;28;20047;-83
2022/03/11 11:26:30;;;;;;;7.82;4.18;;;13.80;99.90;;;;;;5050298;28;20029;-83
2022/03/11 11:29:00;;;;;;;5.47;4.07;;;13.80;99.90;;;;;;5049723;28;20494;-84
2022/03/11 11:31:27;;;;;;;9.23;4.55;;;13.80;99.90;;;;;;5029749;28;20079;-82
2022/03/11 11:33:53;;;;;;;7.03;3.78;;;13.70;99.90;;;;;;5049637;28;20025;-83
2022/03/11 11:36:40;;;;;;;10.38;4.97;;;13.60;99.90;;;;;;5049170;28;20552;-83
2022/03/11 11:39:08;;;;;;;7.93;4.55;;;13.60;99.90;;;;;;5031677;28;20096;-83
2022/03/11 11:41:35;;;;;;;7.18;4.13;;;13.50;99.90;;;;;;5049657;28;20032;-83
2022/03/11 11:44:03;;;;;;;9.68;4.32;;;13.50;99.90;;;;;;5049692;28;20037;-83
2022/03/11 11:46:32;;;;;;;5.93;3.97;;;13.60;99.90;;;;;;5049673;28;20108;-83
2022/03/11 11:49:16;;;;;;;8.40;4.95;;;13.60;99.90;;;;;;5029490;28;20036;-83
2022/03/11 11:51:42;;;;;;;8.65;3.88;;;13.60;99.90;;;;;;5044089;28;20040;-83
2022/03/11 11:54:08;;;;;;;10.23;4.10;;;13.60;99.90;;;;;;5049966;28;20640;-83
2022/03/11 11:56:35;;;;;;;5.82;4.30;;;13.60;99.90;;;;;;5047818;28;20028;-83
2022/03/11 11:59:08;;;;;;;8.32;4.57;;;13.60;99.90;;;;;;5048726;28;20025;-83
2022/03/11 12:01:44;;;;;;;5.93;4.25;;;13.60;99.90;;;;;;5049503;28;20021;-84
2022/03/11 12:04:28;;;;;;;7.45;4.43;;;13.60;99.90;;;;;;5048833;28;20048;-84
2022/03/11 12:07:03;;;;;;;6.43;3.83;;;13.60;99.90;;;;;;5049021;28;20189;-84
2022/03/11 12:09:38;;;;;;;10.55;4.32;;;13.70;99.90;;;;;;5048155;28;20024;-84
2022/03/11 12:12:26;;;;;;;8.65;4.60;;;13.70;99.90;;;;;;5046601;28;20029;-84
2022/03/11 12:14:57;;;;;;;8.52;4.35;;;13.70;99.90;;;;;;5049433;28;20021;-83
2022/03/11 12:17:39;;;;;;;9.40;3.90;;;13.70;99.90;;;;;;5046791;28;20044;-84
2022/03/11 12:20:39;;;;;;;9.02;4.82;;;13.70;99.90;;;;;;5045674;28;20017;-84
2022/03/11 12:23:16;;;;;;;10.60;4.80;;;13.90;99.90;;;;;;5042682;28;20034;-84
2022/03/11 12:25:57;;;;;;;6.75;3.83;;;14.00;99.90;;;;;;5042610;28;20025;-83
2022/03/11 12:28:28;;;;;;;10.77;4.35;;;14.20;99.90;;;;;;5049042;28;20104;-82
2022/03/11 12:30:55;;;;;;;12.10;4.82;;;14.20;99.90;;;;;;5048771;28;20040;-83
2022/03/11 12:33:23;;;;;;;8.57;4.68;;;14.20;99.90;;;;;;5048873;28;20029;-83
2022/03/11 12:35:52;;;;;;;9.15;4.60;;;14.10;99.90;;;;;;5047856;28;20031;-83
2022/03/11 12:38:27;;;;;;;8.43;3.75;;;14.30;99.90;;;;;;5048214;28;20032;-83
2022/03/11 12:40:54;;;;;;;5.75;4.53;;;14.30;99.90;;;;;;5048604;28;20049;-83
2022/03/11 12:43:21;;;;;;;15.20;5.25;;;14.30;99.90;;;;;;5049106;28;20025;-83
2022/03/11 12:45:55;;;;;;;6.03;4.20;;;14.20;99.90;;;;;;5048676;28;20029;-83
2022/03/11 12:48:24;;;;;;;9.07;4.50;;;14.20;99.90;;;;;;5037605;28;20029;-86
2022/03/11 12:50:50;;;;;;;7.25;4.78;;;14.40;99.90;;;;;;5048658;28;20136;-85